Terminal Aerodrome Forecast
Issued by NWS Memphis, TN

Home | Current Version | Previous Version | Text Only | Print | Product List | Glossary On
Versions: 1 2 3 4 5 6 7 8 9 10 11 12 13 14 15
000
FTUS44 KMEG 282321
TAFJBR
TAF
KJBR 282321Z 2900/2924 21010KT P6SM VCTS SCT035CB BKN250
     FM290200 21005KT P6SM SCT035 SCT250
     FM290900 VRB03KT P6SM VCTS SCT010 BKN030CB
      TEMPO 2910/2913 VRB10KT 5SM TSRA BKN009CB
     FM291400 26008KT P6SM BKN025
     FM291900 25010KT P6SM VCSH BKN035 BKN250=

USA.gov is the U.S. government's official web portal to all federal, state and local government web resources and services.